Flight Track Log - Related Links

Times and Time Zones

All times are in EST time to prevent confusion due to time zone crossing. See the N53NW flight status page for this flight to view local times or setup timezone preferences in your user account.

Time Position Orientation Groundspeed Altitude Reporting Facility
EST Latitude Longitude Course Direction KTS MPH feet Rate Location/Type
Sat 10:21:21 AM 39.6483 -107.0400 94° East 233 268 15,000  Level Denver Center
Sat 10:22:22 AM 39.7075 -107.0661 341° North 243 280 15,100 732 Climbing Denver Center
Sat 10:23:00 AM 39.9667 -105.8972 90° East  Level FlightAware Approximate
Sat 10:23:24 AM 39.7750 -107.0569 North 278 320 16,500  Level Denver Center
Sat 10:26:27 AM 39.8719 -106.6822 73° East 367 422 23,700 2,311 Climbing Denver Center
Sat 10:27:28 AM 39.8742 -106.5486 89° East 365 420 25,900 1,407 Climbing Denver Center
Sat 10:31:34 AM 39.8853 -105.9375 73° East 424 488 30,900 1,251 Climbing Denver Center
Sat 10:32:00 AM 40.0813 -105.7581 73° East  Level Estimated
Sat 10:32:35 AM 39.8719 -105.7803 96° East 448 516 32,300  Level Denver Center
Sat 10:34:38 AM 39.8350 -105.4606 83° East 449 517 34,800 1,109 Climbing Denver Center
Sat 10:35:39 AM 39.8464 -105.3039 85° East 437 503 35,700 934 Climbing Denver Center
Sat 10:36:00 AM 40.1732 -105.2561 73° East  Level Estimated
Sat 10:36:40 AM 39.8642 -105.1486 81° East 434 499 36,700  Level Denver Center
Sat 10:37:42 AM 39.8922 -104.9978 76° East 427 491 37,800 1,073 Climbing Denver Center
Sat 10:38:43 AM 39.9242 -104.8122 77° East 433 498 38,900 984 Climbing Denver Center
Sat 10:39:44 AM 39.9500 -104.6592 78° East 430 495 39,800 685 Climbing Denver Center
Sat 10:41:00 AM 39.9938 -104.4686 78° East  Level Estimated
Sat 10:41:47 AM 40.0033 -104.3536 78° East 429 494 41,000  Level Denver Center
Sat 10:42:48 AM 40.0289 -104.1972 78° East 437 503 41,000  Level Denver Center
Sat 10:43:50 AM 40.0564 -104.0353 77° East 451 519 41,000  Level Denver Center
Sat 10:44:51 AM 40.0822 -103.8742 78° East 454 522 41,000 98 Level Denver Center
Sat 10:45:52 AM 40.1089 -103.7136 78° East 454 522 41,200 537 Climbing Denver Center
Sat 10:46:54 AM 40.1347 -103.5575 78° East 443 510 42,100 711 Climbing Denver Center
Sat 10:48:07 AM 40.1589 -103.4028 78° East 436 502 42,800 673 Climbing Denver Center
Sat 10:50:10 AM 40.2164 -103.0444 78° East 420 483 44,300 620 Climbing Denver Center
Sat 10:51:11 AM 40.2344 -102.9258 79° East 418 481 44,700 311 Climbing Denver Center
Sat 10:52:25 AM 40.2614 -102.7508 79° East 410 472 45,000 132 Climbing Denver Center
Sat 10:53:27 AM 40.2883 -102.5775 78° East 421 484 45,000  Level Denver Center
Sat 10:54:28 AM 40.3142 -102.4081 79° East 425 489 45,000  Level Denver Center
Sat 10:56:31 AM 40.3631 -102.0842 79° East 439 505 45,000  Level Denver Center
Sat 10:57:32 AM 40.3850 -101.9339 79° East 440 506 45,000  Level Denver Center
Sat 10:58:34 AM 40.4078 -101.7844 79° East 437 503 45,000  Level Denver Center
Sat 10:59:35 AM 40.4344 -101.6078 79° East 442 509 45,000  Level Denver Center
Sat 11:00:37 AM 40.4525 -101.4819 79° East 441 507 45,000  Level Denver Center
Sat 11:01:38 AM 40.4800 -101.2808 80° East 440 506 45,000  Level Denver Center
Sat 11:02:40 AM 40.5014 -101.1278 80° East 444 511 45,000  Level Denver Center
Sat 11:04:43 AM 40.5458 -100.7978 80° East 445 512 45,000  Level Denver Center
Sat 11:06:46 AM 40.5894 -100.4703 80° East 444 511 45,000  Level Denver Center
Sat 11:07:47 AM 40.6103 -100.3183 80° East 444 511 45,000  Level Denver Center
Sat 11:08:49 AM 40.6336 -100.1400 80° East 445 512 45,000  Level Denver Center
Sat 11:09:50 AM 40.6528 -99.9858 81° East 446 513 45,000  Level Denver Center
Sat 11:10:53 AM 40.6739 -99.8225 80° East 447 514 45,000  Level Denver Center
Sat 11:11:53 AM 40.6947 -99.6600 80° East 449 517 45,000  Level Denver Center
Sat 11:13:07 AM 40.7156 -99.4967 80° East 452 520 45,000  Level Denver Center
Sat 11:14:09 AM 40.7433 -99.2683 81° East 452 520 45,000  Level Denver Center
Sat 11:15:10 AM 40.7633 -99.1053 81° East 452 520 45,000  Level Denver Center
Sat 11:16:12 AM 40.7822 -98.9453 81° East 453 521 45,000  Level Denver Center
Sat 11:16:56 AM 40.7981 -98.8181 81° East 453 521 45,000  Level Minneapolis Center
Sat 11:17:58 AM 40.8167 -98.6519 82° East 457 526 45,000  Level Minneapolis Center
Sat 11:18:59 AM 40.8358 -98.4872 81° East 456 525 45,000  Level Minneapolis Center
Sat 11:20:00 AM 40.8547 -98.3194 81° East 456 525 45,000  Level Minneapolis Center
Sat 11:21:01 AM 40.8736 -98.1533 81° East 459 528 45,000  Level Minneapolis Center
Sat 11:25:06 AM 40.9461 -97.4903 82° East 455 524 45,000  Level Minneapolis Center
Sat 11:26:07 AM 40.9661 -97.2942 82° East 453 521 45,000  Level Minneapolis Center
Sat 11:27:09 AM 40.9831 -97.1303 82° East 452 520 45,000  Level Minneapolis Center
Sat 11:28:10 AM 41.0006 -96.9636 82° East 452 520 45,000  Level Minneapolis Center
Sat 11:29:11 AM 41.0172 -96.8000 82° East 454 522 45,000  Level Minneapolis Center
Sat 11:30:12 AM 41.0339 -96.6344 82° East 455 524 45,000  Level Minneapolis Center
Sat 11:31:13 AM 41.0500 -96.4694 83° East 454 522 45,000  Level Minneapolis Center
Sat 11:32:14 AM 41.0661 -96.3036 83° East 457 526 45,000  Level Minneapolis Center
Sat 11:33:15 AM 41.0825 -96.1386 82° East 456 525 45,000  Level Minneapolis Center
Sat 11:34:17 AM 41.0972 -95.9733 83° East 458 527 45,000  Level Minneapolis Center
Sat 11:35:18 AM 41.1144 -95.7739 83° East 459 528 45,000  Level Minneapolis Center
Sat 11:36:19 AM 41.1292 -95.6069 83° East 460 529 45,000  Level Minneapolis Center
Sat 11:37:20 AM 41.1439 -95.4400 83° East 459 528 45,000  Level Minneapolis Center
Sat 11:39:24 AM 41.1736 -95.1047 83° East 462 532 45,000  Level Minneapolis Center
Sat 11:40:25 AM 41.1872 -94.9364 84° East 461 531 45,000  Level Minneapolis Center
Sat 11:42:46 AM 41.2222 -94.5100 84° East 465 535 45,000  Level Chicago Center
Sat 11:43:29 AM 41.2297 -94.3931 85° East 464 534 45,000  Level Minneapolis Center
Sat 11:44:30 AM 41.2436 -94.2217 84° East 466 536 45,000  Level Minneapolis Center
Sat 11:45:32 AM 41.2544 -94.0714 84° East 464 534 45,000  Level Minneapolis Center
Sat 11:46:33 AM 41.2675 -93.8997 84° East 466 536 45,000  Level Minneapolis Center
Sat 11:48:36 AM 41.2956 -93.5275 84° East 462 532 45,000  Level Minneapolis Center
Sat 11:49:37 AM 41.3089 -93.3544 84° East 467 537 45,000  Level Minneapolis Center
Sat 11:51:39 AM 41.3319 -93.0169 85° East 460 529 45,000  Level Minneapolis Center
Sat 11:52:41 AM 41.3428 -92.8461 85° East 462 532 45,000  Level Minneapolis Center
Sat 11:53:42 AM 41.3542 -92.6744 85° East 465 535 45,000  Level Minneapolis Center
Sat 11:55:02 AM 41.3692 -92.4336 85° East 468 539 45,000  Level Chicago Center
Sat 11:56:03 AM 41.3789 -92.2769 85° East 466 536 45,000  Level Chicago Center
Sat 11:57:04 AM 41.3881 -92.1069 86° East 466 536 45,000  Level Chicago Center
Sat 11:58:05 AM 41.4006 -91.9011 85° East 469 540 45,000  Level Chicago Center
Sat 11:59:07 AM 41.4100 -91.7308 86° East 467 537 45,000  Level Chicago Center
Sat 12:01:10 PM 41.4283 -91.3875 86° East 468 539 45,000  Level Chicago Center
Sat 12:02:11 PM 41.4367 -91.2006 87° East 471 542 45,000  Level Chicago Center
Sat 12:05:15 PM 41.4631 -90.6725 86° East 476 548 45,000  Level Chicago Center
Sat 12:06:16 PM 41.4711 -90.4981 86° East 473 544 45,000  Level Chicago Center
Sat 12:09:20 PM 41.4933 -89.9692 87° East 475 547 45,000  Level Chicago Center
Sat 12:10:21 PM 41.5003 -89.7922 87° East 476 548 45,000  Level Chicago Center
Sat 12:11:22 PM 41.5078 -89.6158 87° East 475 547 45,000  Level Chicago Center
Sat 12:12:24 PM 41.5158 -89.4047 87° East 473 544 45,000  Level Chicago Center
Sat 12:13:25 PM 41.5217 -89.2283 87° East 474 545 45,000  Level Chicago Center
Sat 12:15:27 PM 41.5317 -88.8936 91° East 476 548 45,000  Level Chicago Center
Sat 12:16:29 PM 41.5372 -88.6806 88° East 479 551 45,000  Level Chicago Center
Sat 12:17:30 PM 41.5419 -88.5044 88° East 476 548 45,000  Level Chicago Center
Sat 12:18:31 PM 41.5467 -88.3261 88° East 478 550 45,000  Level Chicago Center
Sat 12:19:32 PM 41.5469 -88.1483 90° East 474 545 45,000  Level Chicago Center
Sat 12:20:34 PM 41.5458 -87.9683 90° East 472 543 45,000  Level Chicago Center
Sat 12:21:35 PM 41.5456 -87.7897 90° East 472 543 45,000  Level Chicago Center
Sat 12:22:37 PM 41.5453 -87.6089 90° East 481 554 45,000  Level Chicago Center
Sat 12:23:38 PM 41.5444 -87.4303 90° East 480 552 45,000  Level Chicago Center
Sat 12:24:39 PM 41.5428 -87.2517 91° East 481 554 45,000  Level Chicago Center
Sat 12:25:40 PM 41.5408 -87.0747 91° East 480 552 45,000  Level Chicago Center
Sat 12:26:42 PM 41.5394 -86.8953 91° East 482 555 45,000  Level Chicago Center
Sat 12:27:43 PM 41.5358 -86.7014 91° East 483 556 45,000  Level Chicago Center
Sat 12:29:45 PM 41.5314 -86.3453 93° East 479 551 45,000  Level Chicago Center
Sat 12:30:47 PM 41.5281 -86.1683 91° East 478 550 45,000  Level Chicago Center
Sat 12:31:48 PM 41.5250 -85.9914 91° East 477 549 45,000  Level Chicago Center
Sat 12:32:49 PM 41.5200 -85.8158 92° East 475 547 45,000  Level Chicago Center
Sat 12:34:41 PM 41.5100 -85.4675 92° East 479 551 45,000  Level Cleveland Center
Sat 12:35:42 PM 41.5044 -85.2922 92° East 479 551 45,000  Level Cleveland Center
Sat 12:36:43 PM 41.4983 -85.1153 93° East 484 557 45,000  Level Cleveland Center
Sat 12:37:56 PM 41.4908 -84.8997 93° East 487 560 45,000  Level Chicago Center
Sat 12:38:57 PM 41.4844 -84.7189 93° East 489 563 45,000  Level Chicago Center
Sat 12:40:47 PM 41.5178 -84.3586 77° East 498 573 45,000  Level Cleveland Center
Sat 12:41:48 PM 41.5436 -84.2064 77° East 497 572 45,000  Level Cleveland Center
Sat 12:42:50 PM 41.5792 -83.9903 78° East 499 574 45,000  Level Cleveland Center
Sat 12:43:51 PM 41.6075 -83.8089 78° East 502 578 45,000  Level Cleveland Center
Sat 12:44:52 PM 41.6364 -83.6272 78° East 504 580 45,000  Level Cleveland Center
Sat 12:45:53 PM 41.6658 -83.4469 78° East 502 578 45,000  Level Cleveland Center
Sat 12:46:54 PM 41.6931 -83.2658 79° East 502 578 45,000  Level Cleveland Center
Sat 12:47:56 PM 41.7222 -83.0844 78° East 503 579 45,000  Level Cleveland Center
Sat 12:49:58 PM 41.7819 -82.6856 73° East 503 579 45,000  Level Cleveland Center
Sat 12:52:01 PM 41.8361 -82.3200 72° East 504 580 45,000  Level Cleveland Center
Sat 12:54:03 PM 41.8892 -81.9436 79° East 506 582 45,000  Level Cleveland Center
Sat 12:56:05 PM 41.9414 -81.5675 79° East 505 581 45,000  Level Cleveland Center
Sat 12:57:07 PM 41.9683 -81.3783 79° East 509 586 45,000  Level Cleveland Center
Sat 12:59:09 PM 42.0200 -81.0000 79° East 508 585 45,000  Level Cleveland Center
Sat 01:01:12 PM 42.0708 -80.6197 80° East 511 588 45,000  Level Cleveland Center
Sat 01:02:13 PM 42.0956 -80.4311 80° East 508 585 45,000  Level Cleveland Center
Sat 01:04:15 PM 42.1439 -80.0514 80° East 508 585 45,000  Level Cleveland Center
Sat 01:05:17 PM 42.1689 -79.8453 81° East 511 588 45,000  Level Cleveland Center
Sat 01:06:18 PM 42.1922 -79.6572 80° East 510 587 45,000  Level Cleveland Center
Sat 01:08:21 PM 42.2356 -79.2814 79° East 510 587 45,000  Level Cleveland Center
Sat 01:12:26 PM 42.3228 -78.5203 82° East 510 587 45,000  Level Cleveland Center
Sat 01:13:27 PM 42.3436 -78.3331 81° East 509 586 45,000  Level Cleveland Center
Sat 01:15:30 PM 42.3886 -77.9214 81° East 507 583 45,000  Level Cleveland Center
Sat 01:16:31 PM 42.4097 -77.7364 81° East 506 582 45,000  Level Cleveland Center
Sat 01:17:00 PM 42.3938 -77.8993 82° East  Level FlightAware Approximate
Sat 01:17:33 PM 42.4289 -77.5300 83° East 509 586 45,000  Level Cleveland Center
Sat 01:18:34 PM 42.4464 -77.3661 82° East 505 581 45,000  Level Cleveland Center
Sat 01:19:35 PM 42.4686 -77.1419 82° East 507 583 45,000  Level Cleveland Center
Sat 01:20:37 PM 42.4867 -76.9544 82° East 506 582 45,000  Level Cleveland Center
Sat 01:21:38 PM 42.5047 -76.7653 83° East 508 585 45,000  Level Cleveland Center
Sat 01:23:41 PM 42.5403 -76.3858 83° East 510 587 45,000  Level Cleveland Center
Sat 01:24:42 PM 42.5567 -76.2075 83° East 512 589 45,000  Level Cleveland Center
Sat 01:25:44 PM 42.5764 -75.9783 83° East 513 590 45,000  Level Cleveland Center
Sat 01:26:45 PM 42.5781 -75.7892 89° East 507 583 45,000 -146 Level Cleveland Center
Sat 01:27:47 PM 42.5794 -75.5986 89° East 508 585 44,700 -2,214 Descending Cleveland Center
Sat 01:30:57 PM 42.5828 -74.9917 90° East 507 583 35,700 -2,821 Descending Boston Center
Sat 01:31:58 PM 42.5833 -74.8114 90° East 491 565 32,900 -2,197 Descending Boston Center
Sat 01:34:00 PM 42.5819 -74.4825 91° East 434 499 29,000 -1,279 Descending Boston Center
Sat 01:35:01 PM 42.5811 -74.3239 90° East 426 490 29,000  Level Boston Center
Sat 01:36:00 PM 42.5675 -74.2741 90° East  Level FlightAware Approximate
Sat 01:36:02 PM 42.5814 -74.1617 90° East 430 495 29,000  Level Boston Center
Sat 01:37:03 PM 42.5792 -74.0003 91° East 429 494 28,600 -836 Descending Boston Center
Sat 01:38:04 PM 42.5783 -73.8139 90° East 417 480 27,300 -1,366 Descending Boston Center
Sat 01:39:06 PM 42.5761 -73.6586 91° East 411 473 25,800 -1,415 Descending Boston Center
Sat 01:40:07 PM 42.5739 -73.5039 91° East 412 474 24,400 -590 Descending Boston Center
Sat 01:42:09 PM 42.5694 -73.2039 91° East 397 457 24,000 -131 Descending Boston Center
Sat 01:43:10 PM 42.5669 -73.0506 91° East 400 460 24,000  Level Boston Center
Sat 01:44:11 PM 42.5642 -72.9050 91° East 399 459 24,000 -984 Level Boston Center
Sat 01:45:12 PM 42.5611 -72.7575 92° East 393 452 22,000 -2,115 Descending Boston Center
Sat 01:46:13 PM 42.5589 -72.6183 91° East 373 429 19,700 -2,262 Descending Boston Center
Sat 01:47:14 PM 42.5553 -72.4747 92° East 355 409 17,400 -2,262 Descending Boston Center
Sat 01:48:15 PM 42.5528 -72.3472 91° East 341 392 15,100 -2,054 Descending Boston Center
Sat 01:50:18 PM 42.5469 -72.0864 92° East 317 365 11,100 -1,891 Descending Boston Center
Sat 01:51:19 PM 42.5383 -71.9706 96° East 312 359 9,300 -1,770 Descending Boston Center
Sat 01:52:20 PM 42.5283 -71.8611 97° East 297 342 7,500 -1,623 Descending Boston Center
Sat 01:53:21 PM 42.5222 -71.7614 95° East 267 307 6,000 -1,171 Descending Boston Center
Sat 01:54:23 PM 42.5283 -71.6578 85° East 258 297 5,100 -439 Descending Boston Center
Sat 01:55:24 PM 42.5328 -71.5631 86° East 253 291 5,100 -516 Level Boston Center
Sat 01:56:31 PM 42.5333 -71.4500 90° East 237 273 4,000 -992 Descending KA90
Sat 01:57:31 PM 42.5333 -71.3667 90° East 220 253 3,000 -800 Descending KA90
Sat 01:58:31 PM 42.5500 -71.3000 71° East 217 250 2,400 -476 Descending KA90
Sat 01:59:37 PM 42.5500 -71.2167 90° East 193 222 2,000 -381 Descending KA90
Sat 02:00:37 PM 42.5167 -71.1833 144° Southeast 169 194 1,600 -350 Descending KA90
Sat 02:01:37 PM 42.4833 -71.2000 200° South 117 135 1,300 -409 Descending KA90
Sat 02:03:33 PM 42.4689 -71.2631 253° West 108 124 400 -466 Descending Boston Center
Sat 02:05:00 PM 42.4667 -71.2833 270° West  Level FlightAware Approximate
Sat 02:12:00 PM 42.4699 -71.2890 270° West  Level Estimated
Sat 02:13:00 PM 42.4667 -71.2833 270° West  Level FlightAware Approximate
Sat 02:14:00 PM 42.4699 -71.2890 270° West  Level Estimated
Sat 02:15:00 PM 42.4667 -71.2833 270° West  Level FlightAware Approximate
Sat 02:16:00 PM 42.4699 -71.2890 270° West  Level Estimated
Sat 02:17:00 PM 42.4667 -71.2833 270° West  Level FlightAware Approximate
Sat 02:18:00 PM 42.4699 -71.2890 270° West  Level Estimated
Sat 02:19:00 PM 42.4667 -71.2833 270° West  Level FlightAware Approximate
Sat 02:20:00 PM 42.4699 -71.2890 270° West  Level Estimated

Login

Don't have an account? Register now (free) for customized features, flight alerts, and more!